<?xml version='1.0' encoding='UTF-8'?><gpx version="1.1" creator="JPX - https://github.com/jenetics/jpx" xmlns="http://www.topografix.com/GPX/1/1"><trk><trkseg><trkpt lat="44.90933000543411" lon="7.298451413753966"><ele>623.0</ele><time>2026-05-02T14:06:35.968Z</time></trkpt><trkpt lat="44.909340821062386" lon="7.2983637283519744"><ele>623.0</ele><time>2026-05-02T14:06:40.968Z</time></trkpt><trkpt lat="44.90939886777963" lon="7.2983075238091475"><ele>623.0</ele><time>2026-05-02T14:06:48.968Z</time></trkpt><trkpt lat="44.90946544694007" lon="7.298311796632203"><ele>623.0</ele><time>2026-05-02T14:06:56.968Z</time></trkpt><trkpt lat="44.90952919684306" lon="7.298309028873392"><ele>623.0</ele><time>2026-05-02T14:07:03.968Z</time></trkpt><trkpt lat="44.90959778753776" lon="7.29830820488579"><ele>623.0</ele><time>2026-05-02T14:07:11.967Z</time></trkpt><trkpt lat="44.90966252862866" lon="7.298306316944571"><ele>623.0</ele><time>2026-05-02T14:07:18.967Z</time></trkpt><trkpt lat="44.90972636959421" lon="7.298273618819796"><ele>623.0</ele><time>2026-05-02T14:07:27.967Z</time></trkpt><trkpt lat="44.90977575785858" lon="7.2982072334441455"><ele>623.0</ele><time>2026-05-02T14:07:35.967Z</time></trkpt><trkpt lat="44.90980861610737" lon="7.2981276525834335"><ele>623.0</ele><time>2026-05-02T14:07:42.967Z</time></trkpt><trkpt lat="44.90985228154764" lon="7.298053089106044"><ele>623.0</ele><time>2026-05-02T14:07:50.966Z</time></trkpt><trkpt lat="44.90989007762112" lon="7.297979244085913"><ele>623.0</ele><time>2026-05-02T14:07:57.966Z</time></trkpt><trkpt lat="44.90993320354207" lon="7.2979110746983835"><ele>623.0</ele><time>2026-05-02T14:08:05.968Z</time></trkpt><trkpt lat="44.90997796303674" lon="7.297835191553194"><ele>623.0</ele><time>2026-05-02T14:08:13.98Z</time></trkpt><trkpt lat="44.91002592005587" lon="7.2977721364865635"><ele>627.8571428571429</ele><time>2026-05-02T14:08:20.988Z</time></trkpt><trkpt lat="44.9100827885541" lon="7.297716520668752"><ele>632.7142857142858</ele><time>2026-05-02T14:08:27.992Z</time></trkpt><trkpt lat="44.91013527804782" lon="7.297650168391924"><ele>637.5714285714286</ele><time>2026-05-02T14:08:36.996Z</time></trkpt><trkpt lat="44.910184690302586" lon="7.297591099194885"><ele>642.4285714285714</ele><time>2026-05-02T14:08:44.997Z</time></trkpt><trkpt lat="44.910238590630584" lon="7.2975444642345195"><ele>647.2857142857143</ele><time>2026-05-02T14:08:52.998Z</time></trkpt><trkpt lat="44.91029943745222" lon="7.2974873973162175"><ele>652.1428571428571</ele><time>2026-05-02T14:09:00.999Z</time></trkpt><trkpt lat="44.910346380947516" lon="7.297414844038978"><ele>657.0</ele><time>2026-05-02T14:09:08.999Z</time></trkpt><trkpt lat="44.91039291469528" lon="7.297348456588509"><ele>657.0</ele><time>2026-05-02T14:09:16.999Z</time></trkpt><trkpt lat="44.91044579323004" lon="7.2972879863106375"><ele>657.0</ele><time>2026-05-02T14:09:24.999Z</time></trkpt><trkpt lat="44.9104818899473" lon="7.29720785585789"><ele>657.0</ele><time>2026-05-02T14:09:36.999Z</time></trkpt><trkpt lat="44.91043782008793" lon="7.2971291666172915"><ele>657.0</ele><time>2026-05-02T14:09:51.999Z</time></trkpt><trkpt lat="44.91036710638947" lon="7.297115294384534"><ele>657.0</ele><time>2026-05-02T14:10:02.999Z</time></trkpt><trkpt lat="44.9103039751421" lon="7.2971262812242355"><ele>657.0</ele><time>2026-05-02T14:10:13.001Z</time></trkpt><trkpt lat="44.910242112188804" lon="7.297148180606712"><ele>657.0</ele><time>2026-05-02T14:10:21Z</time></trkpt><trkpt lat="44.91018164596174" lon="7.297109261083374"><ele>657.7142857142857</ele><time>2026-05-02T14:10:33Z</time></trkpt><trkpt lat="44.91014478127522" lon="7.297030148045311"><ele>658.4285714285714</ele><time>2026-05-02T14:10:41Z</time></trkpt><trkpt lat="44.910103937817844" lon="7.296959568609925"><ele>659.1428571428571</ele><time>2026-05-02T14:10:49.999Z</time></trkpt><trkpt lat="44.910095789386325" lon="7.2968582439121175"><ele>659.8571428571429</ele><time>2026-05-02T14:10:57.999Z</time></trkpt><trkpt lat="44.91006902591753" lon="7.296774290452605"><ele>660.5714285714286</ele><time>2026-05-02T14:11:03.999Z</time></trkpt><trkpt lat="44.91005429892778" lon="7.29667680623862"><ele>661.2857142857143</ele><time>2026-05-02T14:11:11.999Z</time></trkpt><trkpt lat="44.91003654392216" lon="7.296579870527407"><ele>662.0</ele><time>2026-05-02T14:11:17.999Z</time></trkpt><trkpt lat="44.91000372044612" lon="7.29648840052898"><ele>663.4285714285714</ele><time>2026-05-02T14:11:25.998Z</time></trkpt><trkpt lat="44.90997956073107" lon="7.296394624609549"><ele>664.8571428571429</ele><time>2026-05-02T14:11:31.998Z</time></trkpt><trkpt lat="44.90994146526935" lon="7.296318166133193"><ele>666.2857142857142</ele><time>2026-05-02T14:11:36.998Z</time></trkpt><trkpt lat="44.909908075502436" lon="7.296219681219623"><ele>667.7142857142858</ele><time>2026-05-02T14:11:42.998Z</time></trkpt><trkpt lat="44.90988233562684" lon="7.296131673846676"><ele>669.1428571428571</ele><time>2026-05-02T14:11:47.998Z</time></trkpt><trkpt lat="44.909871796270906" lon="7.296032450314642"><ele>670.5714285714286</ele><time>2026-05-02T14:11:53.998Z</time></trkpt><trkpt lat="44.909846561723725" lon="7.295948438372666"><ele>672.0</ele><time>2026-05-02T14:11:58.998Z</time></trkpt><trkpt lat="44.90981669242351" lon="7.295857677848935"><ele>672.0</ele><time>2026-05-02T14:12:04.998Z</time></trkpt><trkpt lat="44.90978642304496" lon="7.295757383387528"><ele>672.0</ele><time>2026-05-02T14:12:10.998Z</time></trkpt><trkpt lat="44.909766364961406" lon="7.295657608304618"><ele>672.0</ele><time>2026-05-02T14:12:16Z</time></trkpt><trkpt lat="44.90975067578826" lon="7.295565750749329"><ele>672.0</ele><time>2026-05-02T14:12:20Z</time></trkpt><trkpt lat="44.909758650790955" lon="7.295466274727504"><ele>672.0</ele><time>2026-05-02T14:12:26Z</time></trkpt><trkpt lat="44.90975545603673" lon="7.295374491739848"><ele>672.0</ele><time>2026-05-02T14:12:31Z</time></trkpt><trkpt lat="44.90974522768651" lon="7.295265811232046"><ele>672.0</ele><time>2026-05-02T14:12:37Z</time></trkpt><trkpt lat="44.90974433457187" lon="7.2951567260838805"><ele>672.1428571428571</ele><time>2026-05-02T14:12:41.999Z</time></trkpt><trkpt lat="44.90975696310547" lon="7.295069581295398"><ele>672.2857142857142</ele><time>2026-05-02T14:12:47.999Z</time></trkpt><trkpt lat="44.90982265377" lon="7.295111117386455"><ele>672.4285714285714</ele><time>2026-05-02T14:12:55.999Z</time></trkpt><trkpt lat="44.909896614242726" lon="7.2951265579302635"><ele>672.5714285714286</ele><time>2026-05-02T14:13:03.999Z</time></trkpt><trkpt lat="44.90995778163395" lon="7.295100868882317"><ele>672.7142857142857</ele><time>2026-05-02T14:13:08.999Z</time></trkpt><trkpt lat="44.909999655872554" lon="7.295031746550335"><ele>672.8571428571429</ele><time>2026-05-02T14:13:17.999Z</time></trkpt><trkpt lat="44.91001856944957" lon="7.294942439119086"><ele>673.0</ele><time>2026-05-02T14:13:25.999Z</time></trkpt><trkpt lat="44.91005337916097" lon="7.2948660222660955"><ele>677.6666666666667</ele><time>2026-05-02T14:13:33.998Z</time></trkpt><trkpt lat="44.91008985526379" lon="7.294781401389859"><ele>682.3333333333334</ele><time>2026-05-02T14:13:41.998Z</time></trkpt><trkpt lat="44.910124858596966" lon="7.294690876857318"><ele>687.0</ele><time>2026-05-02T14:13:53.998Z</time></trkpt><trkpt lat="44.91013498484152" lon="7.294600613542334"><ele>691.6666666666666</ele><time>2026-05-02T14:13:58.998Z</time></trkpt><trkpt lat="44.91017300826137" lon="7.294527812884882"><ele>696.3333333333333</ele><time>2026-05-02T14:14:05.998Z</time></trkpt><trkpt lat="44.91022095337218" lon="7.2944634805637"><ele>701.0</ele><time>2026-05-02T14:14:14.998Z</time></trkpt><trkpt lat="44.910332911354104" lon="7.29445763522433"><ele>701.0</ele><time>2026-05-02T14:14:31Z</time></trkpt><trkpt lat="44.91039049823868" lon="7.294511853681451"><ele>701.0</ele><time>2026-05-02T14:14:43Z</time></trkpt><trkpt lat="44.91037899611687" lon="7.294610162989785"><ele>701.0</ele><time>2026-05-02T14:15:03.999Z</time></trkpt><trkpt lat="44.910393434614946" lon="7.294706079185216"><ele>701.0</ele><time>2026-05-02T14:15:12.999Z</time></trkpt><trkpt lat="44.910449241168536" lon="7.294764481914066"><ele>701.0</ele><time>2026-05-02T14:15:21.999Z</time></trkpt><trkpt lat="44.9105061988143" lon="7.294809095565224"><ele>701.0</ele><time>2026-05-02T14:15:29.998Z</time></trkpt><trkpt lat="44.910541714147904" lon="7.29489980991994"><ele>701.0</ele><time>2026-05-02T14:15:38.998Z</time></trkpt><trkpt lat="44.91055238546252" lon="7.294992877982057"><ele>701.0</ele><time>2026-05-02T14:15:45.998Z</time></trkpt><trkpt lat="44.91055603912156" lon="7.295092075515802"><ele>701.0</ele><time>2026-05-02T14:15:51.999Z</time></trkpt><trkpt lat="44.91056678518459" lon="7.295186275268536"><ele>701.0</ele><time>2026-05-02T14:15:58.999Z</time></trkpt><trkpt lat="44.91058552323413" lon="7.295273757701839"><ele>701.0</ele><time>2026-05-02T14:16:03.999Z</time></trkpt><trkpt lat="44.91063598737465" lon="7.295334940082034"><ele>701.0</ele><time>2026-05-02T14:16:08.999Z</time></trkpt><trkpt lat="44.91069478709985" lon="7.295371703905988"><ele>701.0</ele><time>2026-05-02T14:16:14.999Z</time></trkpt><trkpt lat="44.91076174987244" lon="7.295378582377795"><ele>701.0</ele><time>2026-05-02T14:16:20.998Z</time></trkpt><trkpt lat="44.910852592700444" lon="7.2953948359034095"><ele>704.0</ele><time>2026-05-02T14:16:32.001Z</time></trkpt><trkpt lat="44.91092936050038" lon="7.2954201605917"><ele>707.0</ele><time>2026-05-02T14:16:41.001Z</time></trkpt><trkpt lat="44.91101731058005" lon="7.295428356665382"><ele>710.0</ele><time>2026-05-02T14:16:48Z</time></trkpt><trkpt lat="44.91111149240593" lon="7.295426298914313"><ele>713.0</ele><time>2026-05-02T14:16:58Z</time></trkpt><trkpt lat="44.911208475505205" lon="7.295390595487784"><ele>716.0</ele><time>2026-05-02T14:17:08Z</time></trkpt><trkpt lat="44.91125373694614" lon="7.295325920601869"><ele>719.0</ele><time>2026-05-02T14:17:16Z</time></trkpt><trkpt lat="44.91127766708893" lon="7.2952429175730105"><ele>719.0</ele><time>2026-05-02T14:17:23Z</time></trkpt><trkpt lat="44.911412762248204" lon="7.295204363317582"><ele>719.0</ele><time>2026-05-02T14:17:41.999Z</time></trkpt><trkpt lat="44.91148100331941" lon="7.295155234612821"><ele>719.0</ele><time>2026-05-02T14:17:52.999Z</time></trkpt></trkseg></trk></gpx>